Time;durP1;ratioP1;P1;durP2;ratioP2;P2;SDS_P1;SDS_P2;PMS_P1;PMS_P2;Temp;Humidity;BMP_temperature;BMP_pressure;BME280_temperature;BME280_humidity;BME280_pressure;Samples;Min_cycle;Max_cycle;Signal;HPM_P1;HPM_P2
2023/01/12 00:02:07;;;;;;;1999.90;999.90;;;;;;;2.38;100.00;98259.72;4955103;28;20481;-76
2023/01/12 00:04:34;;;;;;;1999.90;999.90;;;;;;;2.44;100.00;98265.00;4953077;28;20125;-75
2023/01/12 00:07:00;;;;;;;1999.90;999.90;;;;;;;2.45;100.00;98263.91;4953478;28;20519;-75
2023/01/12 00:09:26;;;;;;;1999.90;999.90;;;;;;;2.49;100.00;98270.50;4953090;28;20067;-78
2023/01/12 00:11:51;;;;;;;1999.90;999.90;;;;;;;2.55;100.00;98264.16;4935766;29;20122;-77
2023/01/12 00:14:17;;;;;;;1999.90;999.90;;;;;;;2.52;100.00;98259.22;4953174;28;20482;-75
2023/01/12 00:16:42;;;;;;;1999.90;999.90;;;;;;;2.43;100.00;98257.94;4953375;28;20042;-74
2023/01/12 00:19:11;;;;;;;1999.90;999.90;;;;;;;2.31;100.00;98256.31;4952935;28;20055;-75
2023/01/12 00:24:17;;;;;;;1999.90;999.90;;;;;;;2.31;100.00;98240.13;4952766;28;20043;-75
2023/01/12 00:26:43;;;;;;;1999.90;999.90;;;;;;;2.35;100.00;98241.28;4952988;28;20055;-74
2023/01/12 00:29:08;;;;;;;1999.90;999.90;;;;;;;2.29;100.00;98229.53;4953607;28;20065;-77
2023/01/12 00:31:33;;;;;;;1999.90;999.90;;;;;;;2.36;100.00;98237.50;4955636;28;20035;-77
2023/01/12 00:33:58;;;;;;;1999.90;999.90;;;;;;;2.39;100.00;98272.13;4954443;28;20041;-76
2023/01/12 00:36:24;;;;;;;1999.90;999.90;;;;;;;2.31;100.00;98288.69;4952758;28;20031;-75
2023/01/12 00:38:49;;;;;;;1999.90;999.90;;;;;;;2.17;100.00;98251.13;4953015;28;20031;-76
2023/01/12 00:45:20;;;;;;;1999.90;999.90;;;;;;;2.08;100.00;98247.16;4954612;28;20063;-79
2023/01/12 00:46:43;;;;;;;1999.90;999.90;;;;;;;2.40;100.00;98261.13;4953303;29;20050;-77
2023/01/12 00:49:09;;;;;;;1999.90;999.90;;;;;;;2.43;100.00;98262.50;4953733;29;20400;-76
2023/01/12 00:51:34;;;;;;;1999.90;999.90;;;;;;;2.49;100.00;98264.28;4936886;29;20091;-76
2023/01/12 00:54:03;;;;;;;1999.90;999.90;;;;;;;2.54;100.00;98261.66;4955207;29;20114;-75
2023/01/12 00:56:29;;;;;;;1999.90;999.90;;;;;;;2.63;100.00;98261.06;4952589;29;20046;-77
2023/01/12 00:58:54;;;;;;;1999.90;999.90;;;;;;;2.71;100.00;98270.69;4952384;29;20027;-76
2023/01/12 01:01:19;;;;;;;1999.90;999.90;;;;;;;2.70;100.00;98271.75;4952384;29;20489;-76
2023/01/12 01:03:45;;;;;;;1999.90;999.90;;;;;;;2.61;100.00;98268.59;4952311;29;20070;-76
2023/01/12 01:06:10;;;;;;;1999.90;999.90;;;;;;;2.59;100.00;98272.59;4952535;28;20053;-76
2023/01/12 01:08:36;;;;;;;1999.90;999.90;;;;;;;2.59;100.00;98281.53;4956151;29;20441;-77
2023/01/12 01:11:01;;;;;;;1999.90;999.90;;;;;;;2.48;100.00;98278.81;4956182;29;20032;-76
2023/01/12 01:13:27;;;;;;;1999.90;999.90;;;;;;;2.49;100.00;98281.28;4956085;29;20034;-75
2023/01/12 01:15:52;;;;;;;1999.90;999.90;;;;;;;2.56;100.00;98283.88;4956633;29;20036;-76
2023/01/12 01:18:17;;;;;;;1999.90;999.90;;;;;;;2.67;100.00;98291.13;4956457;29;20082;-77
2023/01/12 01:20:46;;;;;;;1999.90;999.90;;;;;;;2.72;100.00;98291.25;4957639;29;20500;-79
2023/01/12 01:23:11;;;;;;;1999.90;999.90;;;;;;;2.75;100.00;98296.19;4964089;29;20043;-80
2023/01/12 01:25:36;;;;;;;1999.90;999.90;;;;;;;2.85;100.00;98299.06;4957818;29;20031;-75
2023/01/12 01:28:01;;;;;;;1999.90;999.90;;;;;;;2.78;100.00;98300.28;4955888;28;20392;-76
2023/01/12 01:30:27;;;;;;;1999.90;999.90;;;;;;;2.71;100.00;98300.41;4955805;28;20142;-75
2023/01/12 01:32:52;;;;;;;1999.90;999.90;;;;;;;2.65;100.00;98296.78;4955894;28;20024;-76
2023/01/12 01:35:17;;;;;;;1999.90;999.90;;;;;;;2.65;100.00;98306.75;4955863;28;20051;-77
2023/01/12 01:37:43;;;;;;;1999.90;999.90;;;;;;;2.58;100.00;98322.25;4955761;28;20035;-76
2023/01/12 01:40:08;;;;;;;1999.90;999.90;;;;;;;2.55;100.00;98317.31;4955712;28;20016;-77
2023/01/12 01:42:34;;;;;;;1999.90;999.90;;;;;;;2.63;100.00;98322.38;4955543;29;20416;-76
2023/01/12 01:45:02;;;;;;;1999.90;999.90;;;;;;;2.67;100.00;98332.47;4956185;29;20046;-77
2023/01/12 01:47:35;;;;;;;1999.90;999.90;;;;;;;2.63;100.00;98325.06;4957179;29;20037;-76
2023/01/12 01:50:03;;;;;;;1999.90;999.90;;;;;;;2.87;100.00;98321.28;4955443;29;20031;-76
2023/01/12 01:52:35;;;;;;;1999.90;999.90;;;;;;;2.81;100.00;98327.66;4955775;29;20043;-76
2023/01/12 01:55:15;;;;;;;1999.90;999.90;;;;;;;2.80;100.00;98323.28;4956878;29;20131;-77
2023/01/12 01:57:47;;;;;;;1999.90;999.90;;;;;;;2.74;100.00;98305.34;4956700;29;20024;-76
2023/01/12 02:00:13;;;;;;;1999.90;999.90;;;;;;;2.80;100.00;98314.34;4955883;29;20164;-76
2023/01/12 02:02:41;;;;;;;1999.90;999.90;;;;;;;2.76;100.00;98308.59;4955041;29;20106;-76
2023/01/12 02:05:07;;;;;;;1999.90;999.90;;;;;;;2.67;100.00;98304.63;4955072;29;20638;-75
2023/01/12 02:07:33;;;;;;;1999.90;999.90;;;;;;;2.77;100.00;98310.25;4955342;29;20148;-75
2023/01/12 02:09:58;;;;;;;1999.90;999.90;;;;;;;2.69;100.00;98305.22;4954972;29;20437;-76
2023/01/12 02:17:55;;;;;;;1999.90;999.90;;;;;;;2.79;100.00;98327.03;4954046;28;20124;-75
2023/01/12 02:20:29;;;;;;;1999.90;999.90;;;;;;;2.67;100.00;98318.13;4954576;29;20035;-76
2023/01/12 02:23:15;;;;;;;1999.90;999.90;;;;;;;2.76;100.00;98322.09;4954574;28;20031;-76
2023/01/12 02:25:59;;;;;;;1999.90;999.90;;;;;;;2.54;100.00;98315.66;4954910;28;20041;-76
2023/01/12 02:28:44;;;;;;;1999.90;999.90;;;;;;;2.54;100.00;98321.88;4954936;28;20039;-75
2023/01/12 02:31:30;;;;;;;1999.90;999.90;;;;;;;2.42;100.00;98310.28;4954837;28;20114;-76
2023/01/12 02:34:14;;;;;;;1999.90;999.90;;;;;;;2.37;100.00;98309.34;4950429;28;20031;-75
2023/01/12 02:36:39;;;;;;;1999.90;999.90;;;;;;;2.33;100.00;98310.84;4930074;29;20074;-77
2023/01/12 02:39:34;;;;;;;1999.90;999.90;;;;;;;2.35;100.00;98320.34;4955090;29;20492;-76
2023/01/12 02:42:39;;;;;;;1999.90;999.90;;;;;;;2.33;100.00;98325.16;4920755;29;20051;-76
2023/01/12 02:45:14;;;;;;;1999.90;999.90;;;;;;;2.63;100.00;98328.56;4935098;29;20040;-76
2023/01/12 02:48:03;;;;;;;1999.90;999.90;;;;;;;2.77;100.00;98321.06;4935022;29;20114;-75
2023/01/12 02:50:35;;;;;;;1999.90;999.90;;;;;;;2.79;100.00;98321.63;4935086;29;20086;-76
2023/01/12 02:53:08;;;;;;;1999.90;999.90;;;;;;;2.79;100.00;98318.13;4947881;29;21560;-75
2023/01/12 02:55:35;;;;;;;1999.90;999.90;;;;;;;2.77;100.00;98315.66;4953871;29;20038;-76
2023/01/12 02:58:03;;;;;;;1999.90;999.90;;;;;;;2.87;100.00;98332.09;4954270;29;20028;-76
2023/01/12 03:00:29;;;;;;;1999.90;999.90;;;;;;;2.93;100.00;98338.44;4958341;29;20043;-76
2023/01/12 03:02:54;;;;;;;1999.90;999.90;;;;;;;2.97;100.00;98334.19;4953727;29;20035;-76
2023/01/12 03:05:20;;;;;;;1999.90;999.90;;;;;;;3.00;100.00;98342.66;4954054;29;20023;-76
2023/01/12 03:07:47;;;;;;;1999.90;999.90;;;;;;;3.02;100.00;98343.22;4953822;29;20114;-76
2023/01/12 03:10:25;;;;;;;1999.90;999.90;;;;;;;2.94;100.00;98343.59;4953512;29;20030;-76
2023/01/12 03:12:53;;;;;;;1999.90;999.90;;;;;;;3.00;100.00;98344.53;4953466;29;20042;-75
2023/01/12 03:15:22;;;;;;;1999.90;999.90;;;;;;;2.94;100.00;98343.59;4953532;29;20482;-76
2023/01/12 03:18:03;;;;;;;1999.90;999.90;;;;;;;2.87;100.00;98340.19;4953002;28;20504;-77
2023/01/12 03:20:33;;;;;;;1999.90;999.90;;;;;;;2.72;100.00;98331.75;4935482;29;20074;-76
2023/01/12 03:23:11;;;;;;;1999.90;999.90;;;;;;;2.74;100.00;98323.41;4953382;28;20027;-76
2023/01/12 03:25:39;;;;;;;1999.90;999.90;;;;;;;2.85;100.00;98331.50;4952832;28;20373;-76
2023/01/12 03:28:07;;;;;;;1999.90;999.90;;;;;;;2.78;100.00;98328.13;4953841;28;20890;-76
2023/01/12 03:30:37;;;;;;;1999.90;999.90;;;;;;;2.76;100.00;98335.63;4957798;28;20063;-76
2023/01/12 03:33:04;;;;;;;1999.90;999.90;;;;;;;2.69;100.00;98332.22;4958585;28;20055;-76
2023/01/12 03:35:34;;;;;;;1999.90;999.90;;;;;;;2.64;100.00;98337.50;4953683;28;20388;-75
2023/01/12 03:38:17;;;;;;;1999.90;999.90;;;;;;;2.53;100.00;98346.44;4953518;28;20063;-76
2023/01/12 03:40:52;;;;;;;1999.90;999.90;;;;;;;2.52;100.00;98345.59;4953279;28;20043;-76
2023/01/12 03:43:29;;;;;;;1999.90;999.90;;;;;;;2.55;100.00;98339.75;4953124;28;20027;-77
2023/01/12 03:46:10;;;;;;;1999.90;999.90;;;;;;;2.59;100.00;98345.50;4953587;28;20039;-76
2023/01/12 03:48:51;;;;;;;1999.90;999.90;;;;;;;2.58;100.00;98344.66;4953406;28;20027;-76
2023/01/12 03:51:23;;;;;;;1999.90;999.90;;;;;;;2.66;100.00;98341.59;4953874;28;20062;-77
2023/01/12 03:53:51;;;;;;;1999.90;999.90;;;;;;;2.53;100.00;98341.03;4956095;28;20081;-76
2023/01/12 03:56:18;;;;;;;1999.90;999.90;;;;;;;2.42;100.00;98341.84;4956488;28;21561;-79
2023/01/12 03:58:44;;;;;;;1999.90;999.90;;;;;;;2.41;100.00;98346.41;4955594;28;20031;-75
2023/01/12 04:01:10;;;;;;;1999.90;999.90;;;;;;;2.50;100.00;98355.00;4953363;28;20126;-75
2023/01/12 04:03:35;;;;;;;1999.90;999.90;;;;;;;2.56;100.00;98354.88;4953154;28;20076;-75
2023/01/12 04:06:01;;;;;;;1999.90;999.90;;;;;;;2.58;100.00;98357.34;4953368;28;20465;-77
2023/01/12 04:08:26;;;;;;;1999.90;999.90;;;;;;;2.56;100.00;98365.69;4935890;28;20035;-76
2023/01/12 04:10:52;;;;;;;1999.90;999.90;;;;;;;2.44;100.00;98362.16;4952719;28;20030;-75
2023/01/12 04:13:17;;;;;;;1999.90;999.90;;;;;;;2.48;100.00;98362.50;4957522;28;20023;-76
2023/01/12 04:15:42;;;;;;;1999.90;999.90;;;;;;;2.48;100.00;98362.50;4936633;29;20484;-76
2023/01/12 04:18:09;;;;;;;1999.90;999.90;;;;;;;2.53;100.00;98360.75;4952746;28;20034;-75
2023/01/12 04:20:35;;;;;;;1999.90;999.90;;;;;;;2.39;100.00;98364.72;4952697;28;20110;-75
2023/01/12 04:23:00;;;;;;;1999.90;999.90;;;;;;;2.41;100.00;98361.81;4952511;28;20437;-76
2023/01/12 04:25:26;;;;;;;1999.90;999.90;;;;;;;2.33;100.00;98362.13;4952838;28;20028;-76
2023/01/12 04:28:00;;;;;;;1999.90;999.90;;;;;;;2.36;100.00;98364.34;4953424;28;20039;-75
2023/01/12 04:30:27;;;;;;;1999.90;999.90;;;;;;;2.35;100.00;98360.03;4955012;28;20027;-75
2023/01/12 04:32:54;;;;;;;1999.90;999.90;;;;;;;2.44;100.00;98366.72;4952873;28;20118;-76
2023/01/12 04:35:20;;;;;;;1999.90;999.90;;;;;;;2.43;100.00;98365.91;4952896;28;20405;-76
2023/01/12 04:37:45;;;;;;;1999.90;999.90;;;;;;;2.32;100.00;98363.19;4952606;28;20078;-76
2023/01/12 04:40:13;;;;;;;1999.90;999.90;;;;;;;2.30;100.00;98362.59;4952509;28;20027;-76
2023/01/12 04:45:33;;;;;;;1999.90;999.90;;;;;;;2.25;100.00;98381.38;4952708;28;20540;-76
2023/01/12 04:48:08;;;;;;;1999.90;999.90;;;;;;;2.25;100.00;98376.78;4952583;28;20039;-76
2023/01/12 04:50:34;;;;;;;1999.90;999.90;;;;;;;2.27;100.00;98374.69;4952572;28;20115;-75
2023/01/12 04:53:05;;;;;;;1999.90;999.90;;;;;;;2.35;100.00;98373.53;4952214;28;20142;-77
2023/01/12 04:55:32;;;;;;;1999.90;999.90;;;;;;;2.23;100.00;98383.44;4952320;28;20035;-75
2023/01/12 04:57:57;;;;;;;1999.90;999.90;;;;;;;2.40;100.00;98396.06;4952428;28;20488;-76
2023/01/12 05:00:23;;;;;;;1999.90;999.90;;;;;;;2.38;100.00;98389.25;4952455;28;20091;-76
2023/01/12 05:02:49;;;;;;;1999.90;999.90;;;;;;;2.47;100.00;98385.16;4952377;28;20039;-75
2023/01/12 05:05:14;;;;;;;1999.90;999.90;;;;;;;2.53;100.00;98389.63;4952393;28;20031;-75
2023/01/12 05:10:21;;;;;;;1999.90;999.90;;;;;;;2.59;100.00;98383.28;4952110;28;20487;-76
2023/01/12 05:10:28;;;;;;;1999.90;999.90;;;;;;;2.53;100.00;98389.63;4952153;28;20497;-76
2023/01/12 05:12:55;;;;;;;1999.90;999.90;;;;;;;2.47;100.00;98371.66;4952255;28;20050;-76
2023/01/12 05:15:20;;;;;;;1999.90;999.90;;;;;;;2.41;100.00;98375.28;4952327;28;20366;-76
2023/01/12 05:17:45;;;;;;;1999.90;999.90;;;;;;;2.45;100.00;98384.56;4952473;28;20030;-76
2023/01/12 05:20:11;;;;;;;1999.90;999.90;;;;;;;2.44;100.00;98401.81;4952348;28;20109;-76
2023/01/12 05:22:36;;;;;;;1999.90;999.90;;;;;;;2.46;100.00;98402.41;4952311;28;20024;-76
2023/01/12 05:25:01;;;;;;;1999.90;999.90;;;;;;;2.46;100.00;98410.50;4952542;28;20078;-76
2023/01/12 05:27:27;;;;;;;1999.90;999.90;;;;;;;2.40;100.00;98395.25;4957604;28;20118;-75
2023/01/12 05:29:52;;;;;;;1999.90;999.90;;;;;;;2.36;100.00;98388.66;4952224;28;20055;-75
2023/01/12 05:32:17;;;;;;;1999.90;999.90;;;;;;;2.43;100.00;98394.78;4951921;28;20051;-75
2023/01/12 05:34:43;;;;;;;1999.90;999.90;;;;;;;2.43;100.00;98383.97;4951828;28;20036;-74
2023/01/12 05:37:08;;;;;;;1999.90;999.90;;;;;;;2.41;100.00;98394.19;4951794;28;20075;-75
2023/01/12 05:39:33;;;;;;;1999.90;999.90;;;;;;;2.52;100.00;98396.06;4956634;28;20042;-77
2023/01/12 05:44:43;;;;;;;1999.90;999.90;;;;;;;2.55;100.00;98409.09;4951982;28;21726;-75
2023/01/12 05:47:08;;;;;;;1999.90;999.90;;;;;;;2.51;100.00;98413.31;4952819;28;20035;-76
2023/01/12 05:49:33;;;;;;;1999.90;999.90;;;;;;;2.46;100.00;98411.31;4952231;28;20463;-75
2023/01/12 05:51:58;;;;;;;1999.90;999.90;;;;;;;2.46;100.00;98418.59;4951792;28;20043;-75
2023/01/12 05:54:24;;;;;;;1999.90;999.90;;;;;;;2.44;100.00;98415.31;4952404;29;20039;-75
2023/01/12 05:56:50;;;;;;;1999.90;999.90;;;;;;;2.45;100.00;98412.38;4956201;28;20039;-76
2023/01/12 05:59:15;;;;;;;1999.90;999.90;;;;;;;2.44;100.00;98415.31;4965441;28;20109;-75
2023/01/12 06:01:40;;;;;;;1999.90;999.90;;;;;;;2.38;100.00;98424.34;4964236;28;20067;-76
2023/01/12 06:04:06;;;;;;;1999.90;999.90;;;;;;;2.39;100.00;98415.19;4963820;28;20506;-75
2023/01/12 06:06:31;;;;;;;1999.90;999.90;;;;;;;2.44;100.00;98423.41;4965620;28;20027;-74
2023/01/12 06:08:58;;;;;;;1999.90;999.90;;;;;;;2.52;100.00;98425.78;4963760;28;20050;-77
2023/01/12 06:14:08;;;;;;;1999.90;999.90;;;;;;;2.44;100.00;98420.72;4964341;28;20399;-75
2023/01/12 06:16:37;;;;;;;1999.90;999.90;;;;;;;2.35;100.00;98425.59;4966381;28;20469;-77
2023/01/12 06:19:03;;;;;;;1999.90;999.90;;;;;;;2.51;100.00;98440.31;4967402;28;20031;-77
2023/01/12 06:21:30;;;;;;;1999.90;999.90;;;;;;;2.51;100.00;98434.91;4962862;28;20399;-76
2023/01/12 06:23:55;;;;;;;1999.90;999.90;;;;;;;2.45;100.00;98431.28;4959641;28;20030;-76
2023/01/12 06:26:21;;;;;;;1999.90;999.90;;;;;;;2.35;100.00;98422.09;4963769;28;20027;-74
2023/01/12 06:28:46;;;;;;;1999.90;999.90;;;;;;;2.49;100.00;98428.94;4964823;28;20027;-76
2023/01/12 06:31:13;;;;;;;1999.90;999.90;;;;;;;2.41;100.00;98438.19;4961569;28;20066;-76
2023/01/12 06:33:38;;;;;;;1999.90;999.90;;;;;;;2.38;100.00;98435.94;4953793;28;20046;-77
2023/01/12 06:36:04;;;;;;;1999.90;999.90;;;;;;;2.29;100.00;98440.03;4967062;28;20030;-76
2023/01/12 06:38:32;;;;;;;1999.90;999.90;;;;;;;2.26;100.00;98436.97;4965364;28;20038;-75
2023/01/12 06:41:04;;;;;;;1999.90;999.90;;;;;;;2.17;100.00;98433.78;4977131;28;20082;-76
2023/01/12 06:43:30;;;;;;;1999.90;999.90;;;;;;;2.20;100.00;98448.66;4973321;28;20098;-76
2023/01/12 06:45:55;;;;;;;1999.90;999.90;;;;;;;2.23;100.00;98449.03;4973981;28;20023;-77
2023/01/12 06:48:24;;;;;;;1999.90;999.90;;;;;;;2.25;100.00;98452.34;4973517;28;20043;-77
2023/01/12 06:50:49;;;;;;;1999.90;999.90;;;;;;;2.25;100.00;98462.31;4968899;28;20058;-76
2023/01/12 06:53:15;;;;;;;1999.90;999.90;;;;;;;2.25;100.00;98451.53;4953720;29;20090;-77
2023/01/12 06:55:47;;;;;;;1999.90;999.90;;;;;;;2.18;100.00;98451.63;4954301;29;20043;-74
2023/01/12 06:58:12;;;;;;;1999.90;999.90;;;;;;;2.20;100.00;98464.88;4954193;29;20046;-74
2023/01/12 07:00:37;;;;;;;1999.90;999.90;;;;;;;2.23;100.00;98472.50;4954697;29;20027;-75
2023/01/12 07:03:02;;;;;;;1999.90;999.90;;;;;;;2.31;100.00;98466.78;4954983;29;20053;-76
2023/01/12 07:05:28;;;;;;;1999.90;999.90;;;;;;;2.29;100.00;98474.31;4958966;28;20031;-75
2023/01/12 07:07:59;;;;;;;1999.90;999.90;;;;;;;2.39;100.00;98474.56;4961318;29;20081;-77
2023/01/12 07:10:24;;;;;;;1999.90;999.90;;;;;;;2.55;100.00;98482.00;4957629;29;20027;-76
2023/01/12 07:12:49;;;;;;;1999.90;999.90;;;;;;;2.67;100.00;98490.94;4954009;29;20028;-75
2023/01/12 07:15:15;;;;;;;1999.90;999.90;;;;;;;2.79;100.00;98497.19;4954176;29;20432;-77
2023/01/12 07:17:40;;;;;;;1999.90;999.90;;;;;;;2.96;100.00;98492.75;4962657;28;20041;-75
2023/01/12 07:20:06;;;;;;;1999.90;999.90;;;;;;;3.27;100.00;98496.19;4973019;28;20416;-75
2023/01/12 07:22:31;;;;;;;1999.90;999.90;;;;;;;3.46;100.00;98487.72;4973644;28;20034;-76
2023/01/12 07:24:57;;;;;;;1999.90;999.90;;;;;;;3.68;100.00;98477.09;4973368;28;20027;-76
2023/01/12 07:27:22;;;;;;;1999.90;999.90;;;;;;;3.87;100.00;98491.28;4972956;28;20713;-77
2023/01/12 07:29:47;;;;;;;1999.90;999.90;;;;;;;4.25;100.00;98502.34;4973062;28;20114;-74
2023/01/12 07:32:13;;;;;;;1999.90;999.90;;;;;;;5.20;100.00;98507.84;4973392;28;20488;-77
2023/01/12 07:34:38;;;;;;;1999.90;999.90;;;;;;;6.38;100.00;98512.75;4973507;28;20078;-75
2023/01/12 07:37:05;;;;;;;1999.90;999.90;;;;;;;8.07;100.00;98526.38;4972422;28;20502;-75
2023/01/12 07:39:30;;;;;;;1999.90;999.90;;;;;;;9.25;100.00;98523.69;4971252;28;20037;-75
2023/01/12 07:44:40;;;;;;;1999.90;999.90;;;;;;;10.03;91.09;98538.63;4972562;28;20407;-76
2023/01/12 07:47:06;;;;;;;1999.90;999.90;;;;;;;11.40;83.00;98539.59;4975298;28;20094;-76
2023/01/12 07:49:31;;;;;;;1999.90;999.90;;;;;;;11.04;81.41;98532.72;4962675;28;20468;-79
2023/01/12 07:51:57;;;;;;;1999.90;999.90;;;;;;;10.30;84.20;98543.78;4974756;28;20051;-76
2023/01/12 07:54:22;;;;;;;1999.90;999.90;;;;;;;9.90;86.88;98539.22;4975776;28;20019;-76
2023/01/12 07:56:47;;;;;;;1999.90;999.90;;;;;;;8.99;91.87;98536.53;4972615;28;20027;-75
2023/01/12 07:59:13;;;;;;;1999.90;999.90;;;;;;;7.62;98.75;98534.25;4972368;28;20568;-75
2023/01/12 08:01:39;;;;;;;1999.90;999.90;;;;;;;6.50;100.00;98534.31;4972419;28;20026;-75
2023/01/12 08:04:05;;;;;;;1999.90;999.90;;;;;;;6.56;100.00;98523.25;4972242;28;20023;-75
2023/01/12 08:06:30;;;;;;;1999.90;999.90;;;;;;;6.56;100.00;98523.25;4975378;28;20018;-78
2023/01/12 08:08:56;;;;;;;1999.90;999.90;;;;;;;6.69;100.00;98522.03;4973943;28;20031;-77
2023/01/12 08:11:21;;;;;;;1999.90;999.90;;;;;;;6.95;100.00;98532.09;4972562;28;20038;-75
2023/01/12 08:13:47;;;;;;;1999.90;999.90;;;;;;;7.16;100.00;98535.81;4972557;28;20022;-75
2023/01/12 08:16:16;;;;;;;1999.90;999.90;;;;;;;7.47;98.85;98532.25;4971837;28;20097;-75
2023/01/12 08:18:55;;;;;;;1999.90;999.90;;;;;;;8.33;94.20;98546.41;4972280;28;20579;-74
2023/01/12 08:21:24;;;;;;;1999.90;999.90;;;;;;;9.53;86.02;98540.34;4972375;28;20041;-76
2023/01/12 08:23:55;;;;;;;1999.90;999.90;;;;;;;10.71;78.10;98550.72;4972137;28;20072;-76
2023/01/12 08:26:23;;;;;;;1999.90;999.90;;;;;;;11.36;73.69;98565.91;4972513;28;20049;-79
2023/01/12 08:28:57;;;;;;;1999.90;999.90;;;;;;;11.76;70.94;98562.88;4972837;28;20081;-77
2023/01/12 08:31:25;;;;;;;1999.90;999.90;;;;;;;12.14;68.90;98569.34;4974849;28;20026;-76
2023/01/12 08:33:53;;;;;;;1999.90;999.90;;;;;;;12.18;69.17;98575.91;4972286;28;20027;-75
2023/01/12 08:36:20;;;;;;;1999.90;999.90;;;;;;;13.06;64.74;98577.28;4972446;28;20023;-77
2023/01/12 08:38:45;;;;;;;1999.90;999.90;;;;;;;12.54;66.17;98564.50;4972307;28;20495;-76
2023/01/12 08:44:01;;;;;;;1999.90;999.90;;;;;;;13.27;63.69;98560.25;4974550;28;20045;-77
2023/01/12 08:46:34;;;;;;;1999.90;999.90;;;;;;;13.18;63.58;98567.53;4977376;28;20062;-78
2023/01/12 08:49:00;;;;;;;1999.90;999.90;;;;;;;12.23;66.03;98562.13;4974176;28;20027;-76
2023/01/12 08:51:25;;;;;;;1999.90;999.90;;;;;;;13.35;62.84;98573.31;4972034;28;20039;-75
2023/01/12 08:53:51;;;;;;;1999.90;999.90;;;;;;;13.63;63.18;98584.41;4955299;28;20464;-76
2023/01/12 08:56:17;;;;;;;1999.90;999.90;;;;;;;14.34;58.11;98586.78;4973434;28;20030;-74
2023/01/12 08:58:42;;;;;;;1999.90;999.90;;;;;;;14.65;56.89;98587.00;4972896;28;20030;-75
2023/01/12 09:01:13;;;;;;;1999.90;999.90;;;;;;;14.41;55.97;98578.91;4972504;28;20039;-74
2023/01/12 09:03:39;;;;;;;1999.90;999.90;;;;;;;15.26;52.64;98580.97;4972913;28;20030;-76
2023/01/12 09:06:18;;;;;;;1999.90;999.90;;;;;;;14.98;53.64;98578.28;4974384;28;20031;-75
2023/01/12 09:08:45;;;;;;;1999.90;999.90;;;;;;;14.08;56.60;98574.56;4972488;28;20027;-74
2023/01/12 09:11:11;;;;;;;1999.90;999.90;;;;;;;14.07;55.72;98568.25;4955870;28;20039;-75
2023/01/12 09:13:37;;;;;;;1999.90;999.90;;;;;;;14.45;54.88;98571.69;4973801;28;20045;-78
2023/01/12 09:16:08;;;;;;;1999.90;999.90;;;;;;;12.95;60.47;98573.84;4956285;28;20027;-75
2023/01/12 09:18:34;;;;;;;1999.90;999.90;;;;;;;12.29;61.83;98584.81;4972928;28;20060;-75
2023/01/12 09:21:11;;;;;;;1999.90;999.90;;;;;;;11.80;64.21;98583.13;4973009;28;20435;-75
2023/01/12 09:23:37;;;;;;;1999.90;999.90;;;;;;;11.37;66.40;98589.44;4976292;28;20054;-75
2023/01/12 09:26:09;;;;;;;1999.90;999.90;;;;;;;11.18;67.18;98593.97;4972073;28;20030;-75
2023/01/12 09:28:35;;;;;;;1999.90;999.90;;;;;;;10.83;70.70;98591.44;4977568;28;20034;-76
2023/01/12 09:31:05;;;;;;;1999.90;999.90;;;;;;;11.00;70.27;98595.44;4980389;28;20027;-74
2023/01/12 09:33:31;;;;;;;1999.90;999.90;;;;;;;10.88;69.41;98594.13;4980232;28;20037;-76
2023/01/12 09:36:09;;;;;;;1999.90;999.90;;;;;;;10.15;73.44;98586.47;4980315;28;20030;-76
2023/01/12 09:38:35;;;;;;;1999.90;999.90;;;;;;;9.85;76.04;98581.03;4980156;28;20056;-79
2023/01/12 09:41:11;;;;;;;1999.90;999.90;;;;;;;10.32;72.93;98591.63;4981857;28;20038;-78
2023/01/12 09:49:15;;;;;;;1999.90;999.90;;;;;;;11.29;71.67;98590.06;4981017;28;20034;-74
2023/01/12 09:51:57;;;;;;;1999.90;999.90;;;;;;;10.74;71.92;98589.25;4980865;28;20046;-76
2023/01/12 09:54:22;;;;;;;1999.90;999.90;;;;;;;10.57;71.24;98588.81;4976763;28;20031;-76
2023/01/12 09:57:14;;;;;;;1999.90;999.90;;;;;;;10.91;71.90;98585.34;4979263;28;20054;-78
2023/01/12 09:59:57;;;;;;;1999.90;999.90;;;;;;;10.59;71.48;98592.06;4940322;28;20415;-75
2023/01/12 10:02:23;;;;;;;1999.90;999.90;;;;;;;10.91;69.14;98586.19;4974816;28;20023;-75
2023/01/12 10:04:50;;;;;;;1999.90;999.90;;;;;;;10.98;68.87;98585.88;4974582;28;20030;-74
2023/01/12 10:07:17;;;;;;;1999.90;999.90;;;;;;;10.86;69.56;98583.47;4974520;28;20042;-74
2023/01/12 10:09:43;;;;;;;1999.90;999.90;;;;;;;10.69;69.84;98574.78;4974489;28;20058;-74
2023/01/12 10:12:34;;;;;;;1999.90;999.90;;;;;;;10.32;70.65;98590.78;4975567;28;20065;-76
2023/01/12 10:15:02;;;;;;;1999.90;999.90;;;;;;;10.13;71.46;98587.81;4974699;28;20081;-76
2023/01/12 10:17:49;;;;;;;1999.90;999.90;;;;;;;9.75;73.57;98588.41;4976716;28;20030;-76
2023/01/12 10:20:17;;;;;;;1999.90;999.90;;;;;;;9.79;73.14;98584.84;4976647;28;20106;-76
2023/01/12 10:22:54;;;;;;;1999.90;999.90;;;;;;;10.14;70.47;98584.84;4974197;28;20534;-74
2023/01/12 10:25:37;;;;;;;1999.90;999.90;;;;;;;9.44;72.64;98579.41;4975036;28;20491;-74
2023/01/12 10:28:14;;;;;;;1999.90;999.90;;;;;;;9.73;72.84;98582.41;4974127;28;20034;-75
2023/01/12 10:30:41;;;;;;;1999.90;999.90;;;;;;;9.36;73.75;98577.22;4974216;28;20502;-77
2023/01/12 10:33:18;;;;;;;1999.90;999.90;;;;;;;9.64;72.76;98580.22;4974302;28;20122;-74
2023/01/12 10:35:49;;;;;;;1999.90;999.90;;;;;;;9.71;71.78;98587.31;4974139;28;20035;-77
2023/01/12 10:38:27;;;;;;;1999.90;999.90;;;;;;;9.55;73.01;98581.84;4974065;28;20117;-75
2023/01/12 10:41:15;;;;;;;1999.90;999.90;;;;;;;9.74;72.69;98584.06;4973421;28;20489;-74
2023/01/12 10:43:42;;;;;;;1999.90;999.90;;;;;;;9.64;70.52;98582.13;4973638;28;20038;-76
2023/01/12 10:46:10;;;;;;;1999.90;999.90;;;;;;;10.82;66.94;98576.09;4973777;28;20031;-74
2023/01/12 10:48:38;;;;;;;1999.90;999.90;;;;;;;11.98;62.90;98575.28;4974335;28;20037;-76
2023/01/12 10:51:17;;;;;;;1999.90;999.90;;;;;;;12.51;59.34;98574.16;4973344;28;20031;-74
2023/01/12 10:54:10;;;;;;;1999.90;999.90;;;;;;;11.73;60.42;98563.44;4973882;28;20443;-75
2023/01/12 10:56:42;;;;;;;1999.90;999.90;;;;;;;13.37;57.06;98562.03;4971289;28;20057;-75
2023/01/12 10:59:07;;;;;;;1999.90;999.90;;;;;;;13.57;54.81;98569.13;4974227;28;20534;-75
2023/01/12 11:01:42;;;;;;;1999.90;999.90;;;;;;;14.25;52.94;98574.81;4973716;28;20031;-75
2023/01/12 11:04:11;;;;;;;1999.90;999.90;;;;;;;13.61;54.08;98559.97;4973421;28;20706;-75
2023/01/12 11:06:37;;;;;;;1999.90;999.90;;;;;;;12.66;55.89;98571.22;4973519;28;20062;-75
2023/01/12 11:09:23;;;;;;;1999.90;999.90;;;;;;;12.81;56.27;98551.00;4973423;28;20082;-75
2023/01/12 11:11:54;;;;;;;1999.90;999.90;;;;;;;12.35;57.16;98551.56;4973121;28;20110;-74
2023/01/12 11:14:30;;;;;;;1999.90;999.90;;;;;;;12.23;58.02;98544.84;4973406;28;20038;-76
2023/01/12 11:17:21;;;;;;;1999.90;999.90;;;;;;;11.45;60.27;98545.03;4973488;28;20110;-76
2023/01/12 11:19:50;;;;;;;1999.90;999.90;;;;;;;11.75;58.99;98544.78;4973178;28;20027;-75
2023/01/12 11:22:23;;;;;;;1999.90;999.90;;;;;;;11.51;59.27;98535.66;4973052;28;20030;-74
2023/01/12 11:24:55;;;;;;;1999.90;999.90;;;;;;;11.72;59.99;98528.91;4972973;28;20035;-74
2023/01/12 11:27:39;;;;;;;1999.90;999.90;;;;;;;11.24;60.97;98521.63;4972506;28;20055;-74
2023/01/12 11:30:19;;;;;;;1999.90;999.90;;;;;;;11.31;60.53;98516.63;4974103;28;20027;-75
2023/01/12 11:32:54;;;;;;;1999.90;999.90;;;;;;;11.33;60.09;98508.16;4974695;28;20038;-74
2023/01/12 11:35:25;;;;;;;1999.90;999.90;;;;;;;11.32;60.07;98521.00;4972867;28;20027;-75